This is the latest recevied weather packets stored in our database for station/object 7L2IWN-13. If no packets are shown the sender has not sent any weather packets the latest 1 day(s).
| Time | Temp. | Humidity | Pressure | Rain* | Wind** | Luminosity | Snow |
|---|---|---|---|---|---|---|---|
| 1836274278 | 22.78° C | 91% | 1012.2 hPa | 0 mm | 0 m/s | - | - |
| 1836274129 | 21.67° C | 92% | 1012.5 hPa | 0 mm | 0.89 m/s, 216° | - | - |
| 1778034584 | 17.78° C | 65% | 1019.5 hPa | 0 mm | 1.34 m/s, 25° | - | - |
| 1778033865 | 17.78° C | 65% | 1019.6 hPa | 0 mm | 2.68 m/s, 85° | - | - |
| 1778033144 | 17.22° C | 66% | 1019.8 hPa | 0 mm | 0.45 m/s, 82° | - | - |
| 1778032425 | 17.22° C | 65% | 1019.9 hPa | 0 mm | 2.24 m/s, 94° | - | - |
| 1778031704 | 17.22° C | 66% | 1020.2 hPa | 0 mm | 0.89 m/s, 48° | - | - |
| 1778030984 | 16.67° C | 67% | 1020.3 hPa | 0 mm | 0.89 m/s, 104° | - | - |
| 1778030265 | 17.22° C | 65% | 1020.5 hPa | 0 mm | 1.34 m/s, 52° | - | - |
| 1778029547 | 17.22° C | 65% | 1020.4 hPa | 0 mm | 0 m/s | - | - |
| 1778028825 | 17.78° C | 63% | 1020.6 hPa | 0 mm | 0.45 m/s, 125° | - | - |
| 1778028107 | 16.67° C | 64% | 1020.7 hPa | 0 mm | 0 m/s | - | - |
| 1778027387 | 16.67° C | 65% | 1020.8 hPa | 0 mm | 0.89 m/s, 102° | - | - |
| 1778026664 | 15° C | 72% | 1020.7 hPa | 0 mm | 1.34 m/s, 85° | - | - |
| 1778025950 | 15° C | 71% | 1020.9 hPa | 0 mm | 0 m/s | - | - |
| 1778025226 | 14.44° C | 73% | 1021.1 hPa | 0 mm | 0 m/s | - | - |
| 1778024507 | 14.44° C | 75% | 1021 hPa | 0 mm | 0 m/s | - | - |
| 1778023786 | 13.89° C | 80% | 1021.5 hPa | 0 mm | 0.45 m/s, 16° | - | - |
| 1778023066 | 13.33° C | 80% | 1021.5 hPa | 0 mm | 0.45 m/s, 2° | - | - |
| 1778022345 | 12.78° C | 81% | 1021.7 hPa | 0 mm | 0.45 m/s, 58° | - | - |
| 1778021626 | 12.78° C | 82% | 1021.6 hPa | 0 mm | 0 m/s | - | - |
| 1778020907 | 12.22° C | 83% | 1021.7 hPa | 0 mm | 0 m/s | - | - |
| 1778019470 | 11.67° C | 87% | 1021.6 hPa | 0 mm | 0 m/s | - | - |
| 1778018747 | 11.11° C | 89% | 1021.6 hPa | 0 mm | 0 m/s | - | - |
| 1778018027 | 10.56° C | 91% | 1021.6 hPa | 0 mm | 0 m/s | - | - |
* Rain latest hour (hover to see other rain measurements)
** Current wind speed in m/s (hover to see current wind gust speed)